Time;durP1;ratioP1;P1;durP2;ratioP2;P2;SDS_P1;SDS_P2;PMS_P1;PMS_P2;Temp;Humidity;BMP_temperature;BMP_pressure;BME280_temperature;BME280_humidity;BME280_pressure;Samples;Min_cycle;Max_cycle;Signal;HPM_P1;HPM_P2
2023/09/23 00:00:29;;;;;;;;;;;19.60;99.90;;;;;;4928153;28;19935;-72
2023/09/23 00:02:59;;;;;;;;;;;19.60;99.90;;;;;;4935853;28;19968;-72
2023/09/23 00:05:26;;;;;;;;;;;19.60;99.90;;;;;;4938584;28;20078;-73
2023/09/23 00:07:52;;;;;;;;;;;19.50;99.90;;;;;;4931408;28;20392;-72
2023/09/23 00:10:17;;;;;;;;;;;19.50;99.90;;;;;;4931484;28;20101;-73
2023/09/23 00:12:43;;;;;;;;;;;19.50;99.90;;;;;;4932917;28;20462;-73
2023/09/23 00:15:12;;;;;;;;;;;19.40;99.90;;;;;;4931232;28;19962;-72
2023/09/23 00:17:38;;;;;;;;;;;19.40;99.90;;;;;;4936204;28;20045;-73
2023/09/23 00:20:16;;;;;;;;;;;19.40;99.90;;;;;;4929794;28;20062;-72
2023/09/23 00:22:45;;;;;;;;;;;19.30;99.90;;;;;;4935423;28;19961;-73
2023/09/23 00:25:10;;;;;;;;;;;19.30;99.90;;;;;;4929951;28;19940;-67
2023/09/23 00:27:36;;;;;;;;;;;19.30;99.90;;;;;;4925082;28;19957;-67
2023/09/23 00:30:05;;;;;;;;;;;19.30;99.90;;;;;;4910737;28;20622;-67
2023/09/23 00:32:32;;;;;;;;;;;19.20;99.90;;;;;;4932179;28;19961;-68
2023/09/23 00:34:59;;;;;;;;;;;19.20;99.90;;;;;;4932772;28;20042;-68
2023/09/23 00:37:24;;;;;;;;;;;19.20;99.90;;;;;;4938539;28;20665;-67
2023/09/23 00:39:50;;;;;;;;;;;19.20;99.90;;;;;;4931290;28;19960;-67
2023/09/23 00:42:18;;;;;;;;;;;19.10;99.90;;;;;;4935919;28;21252;-67
2023/09/23 00:44:44;;;;;;;;;;;19.10;99.90;;;;;;4935127;28;21092;-67
2023/09/23 00:47:16;;;;;;;;;;;19.10;99.90;;;;;;4933430;28;20426;-67
2023/09/23 00:49:45;;;;;;;;;;;19.10;99.90;;;;;;4932145;28;19940;-67
2023/09/23 00:52:14;;;;;;;;;;;19.10;99.90;;;;;;4929465;28;20503;-67
2023/09/23 00:54:40;;;;;;;;;;;19.00;99.90;;;;;;4919313;28;19974;-67
2023/09/23 00:57:09;;;;;;;;;;;18.90;99.90;;;;;;4920506;28;20468;-67
2023/09/23 00:59:35;;;;;;;;;;;18.90;99.90;;;;;;4936673;28;19946;-67
2023/09/23 01:02:04;;;;;;;;;;;18.80;99.90;;;;;;4934725;28;19934;-67
2023/09/23 01:04:30;;;;;;;;;;;18.80;99.90;;;;;;4954007;28;20763;-66
2023/09/23 01:06:56;;;;;;;;;;;18.80;99.90;;;;;;4933040;28;19935;-66
2023/09/23 01:09:22;;;;;;;;;;;18.80;99.90;;;;;;4935836;28;19984;-67
2023/09/23 01:11:50;;;;;;;;;;;18.80;99.90;;;;;;4932578;28;19940;-67
2023/09/23 01:14:21;;;;;;;;;;;18.80;99.90;;;;;;4929663;28;19936;-67
2023/09/23 01:16:49;;;;;;;;;;;18.70;99.90;;;;;;4933973;28;20320;-66
2023/09/23 01:19:15;;;;;;;;;;;18.70;99.90;;;;;;4931859;28;21463;-68
2023/09/23 01:21:40;;;;;;;;;;;18.70;99.90;;;;;;4933090;28;20323;-68
2023/09/23 01:24:06;;;;;;;;;;;18.80;99.90;;;;;;4914472;29;20615;-68
2023/09/23 01:26:32;;;;;;;;;;;18.70;99.90;;;;;;4933491;28;19975;-68
2023/09/23 01:28:57;;;;;;;;;;;18.80;99.90;;;;;;4933465;28;20358;-68
2023/09/23 01:31:29;;;;;;;;;;;18.80;99.90;;;;;;4932067;28;20009;-68
2023/09/23 01:33:56;;;;;;;;;;;18.70;99.90;;;;;;4929891;28;19933;-68
2023/09/23 01:36:21;;;;;;;;;;;18.60;99.90;;;;;;4927509;28;19936;-68
2023/09/23 01:38:48;;;;;;;;;;;18.50;99.90;;;;;;4934463;28;19937;-68
2023/09/23 01:41:16;;;;;;;;;;;18.50;99.90;;;;;;4933666;28;19983;-74
2023/09/23 01:43:41;;;;;;;;;;;18.40;99.90;;;;;;4926590;28;20409;-74
2023/09/23 01:46:07;;;;;;;;;;;18.40;99.90;;;;;;4928782;28;19943;-74
2023/09/23 01:48:33;;;;;;;;;;;18.40;99.90;;;;;;4916151;28;19942;-78
2023/09/23 01:50:59;;;;;;;;;;;18.40;99.90;;;;;;4929596;28;19956;-76
2023/09/23 01:53:25;;;;;;;;;;;18.30;99.90;;;;;;4931076;28;20055;-74
2023/09/23 01:55:51;;;;;;;;;;;18.30;99.90;;;;;;4931536;28;20469;-72
2023/09/23 01:58:17;;;;;;;;;;;18.30;99.90;;;;;;4935821;28;19932;-74
2023/09/23 02:00:42;;;;;;;;;;;18.40;99.90;;;;;;4928808;28;19956;-73
2023/09/23 02:03:08;;;;;;;;;;;18.30;99.90;;;;;;4934756;28;19959;-74
2023/09/23 02:05:33;;;;;;;;;;;18.30;99.90;;;;;;4940383;28;19944;-74
2023/09/23 02:07:59;;;;;;;;;;;18.30;99.90;;;;;;4916655;29;20268;-73
2023/09/23 02:10:26;;;;;;;;;;;18.40;99.90;;;;;;4935310;28;19980;-75
2023/09/23 02:12:52;;;;;;;;;;;18.30;99.90;;;;;;4935053;28;20008;-75
2023/09/23 02:15:18;;;;;;;;;;;18.40;99.90;;;;;;4930302;28;19988;-70
2023/09/23 02:17:44;;;;;;;;;;;18.50;99.90;;;;;;4930400;28;20586;-70
2023/09/23 02:20:18;;;;;;;;;;;18.50;99.90;;;;;;4927502;28;19952;-70
2023/09/23 02:22:45;;;;;;;;;;;18.50;99.90;;;;;;4931271;28;19953;-70
2023/09/23 02:25:13;;;;;;;;;;;18.50;99.90;;;;;;4929552;28;20003;-70
2023/09/23 02:27:39;;;;;;;;;;;18.50;99.90;;;;;;4933884;28;19991;-70
2023/09/23 02:30:06;;;;;;;;;;;18.60;99.90;;;;;;4927058;28;19933;-70
2023/09/23 02:32:32;;;;;;;;;;;18.60;99.90;;;;;;4931766;28;19931;-70
2023/09/23 02:34:57;;;;;;;;;;;18.60;99.90;;;;;;4925544;28;20009;-69
2023/09/23 02:37:26;;;;;;;;;;;18.60;99.90;;;;;;4929869;28;20024;-70
2023/09/23 02:39:52;;;;;;;;;;;18.60;99.90;;;;;;4928923;28;19943;-70
2023/09/23 02:42:17;;;;;;;;;;;18.60;99.90;;;;;;4930859;28;20116;-70
2023/09/23 02:44:43;;;;;;;;;;;18.60;99.90;;;;;;4929576;28;20405;-70
2023/09/23 02:47:08;;;;;;;;;;;18.60;99.90;;;;;;4926263;28;20609;-70
2023/09/23 02:49:34;;;;;;;;;;;18.70;99.90;;;;;;4930045;28;19961;-70
2023/09/23 02:52:00;;;;;;;;;;;18.70;99.90;;;;;;4930330;28;19910;-69
2023/09/23 02:54:27;;;;;;;;;;;18.70;99.90;;;;;;4933504;28;19951;-70
2023/09/23 02:56:52;;;;;;;;;;;18.70;99.90;;;;;;4926059;28;19933;-70
2023/09/23 02:59:26;;;;;;;;;;;18.70;99.90;;;;;;4933143;28;19942;-70
2023/09/23 03:01:53;;;;;;;;;;;18.70;99.90;;;;;;4933225;28;20026;-70
2023/09/23 03:04:21;;;;;;;;;;;18.60;99.90;;;;;;4933993;28;19990;-70
2023/09/23 03:06:53;;;;;;;;;;;18.70;99.90;;;;;;4932317;28;20396;-70
2023/09/23 03:09:25;;;;;;;;;;;18.70;99.90;;;;;;4932961;28;19930;-70
2023/09/23 03:11:58;;;;;;;;;;;18.60;99.90;;;;;;4932934;28;20081;-70
2023/09/23 03:14:28;;;;;;;;;;;18.60;99.90;;;;;;4931984;28;19958;-70
2023/09/23 03:16:54;;;;;;;;;;;18.60;99.90;;;;;;4933207;28;20052;-70
2023/09/23 03:19:24;;;;;;;;;;;18.70;99.90;;;;;;4933209;28;20361;-69
2023/09/23 03:21:51;;;;;;;;;;;18.70;99.90;;;;;;4934266;28;19940;-70
2023/09/23 03:24:17;;;;;;;;;;;18.70;99.90;;;;;;4950038;28;19940;-70
2023/09/23 03:26:46;;;;;;;;;;;18.70;99.90;;;;;;4930636;28;19937;-70
2023/09/23 03:29:13;;;;;;;;;;;18.70;99.90;;;;;;4939252;28;19930;-70
2023/09/23 03:31:39;;;;;;;;;;;18.70;99.90;;;;;;4922299;28;19949;-69
2023/09/23 03:34:05;;;;;;;;;;;18.70;99.90;;;;;;4932754;28;19937;-70
2023/09/23 03:36:31;;;;;;;;;;;18.70;99.90;;;;;;4931076;28;19939;-70
2023/09/23 03:39:00;;;;;;;;;;;18.70;99.90;;;;;;4934480;28;19935;-70
2023/09/23 03:41:27;;;;;;;;;;;18.70;99.90;;;;;;4930339;28;19933;-70
2023/09/23 03:43:53;;;;;;;;;;;18.70;99.90;;;;;;4931760;28;19962;-70
2023/09/23 03:46:18;;;;;;;;;;;18.80;99.90;;;;;;4933759;28;19932;-70
2023/09/23 03:48:44;;;;;;;;;;;18.70;99.90;;;;;;4934994;28;20397;-70
2023/09/23 03:51:09;;;;;;;;;;;18.80;99.90;;;;;;4935218;28;19969;-69
2023/09/23 03:53:38;;;;;;;;;;;18.80;99.90;;;;;;4934150;28;20360;-70
2023/09/23 03:56:05;;;;;;;;;;;18.70;99.90;;;;;;4931817;28;19947;-70
2023/09/23 03:58:30;;;;;;;;;;;18.80;99.90;;;;;;4930957;28;19929;-70
2023/09/23 04:01:00;;;;;;;;;;;18.80;99.90;;;;;;4930911;28;20031;-70
2023/09/23 04:03:25;;;;;;;;;;;18.70;99.90;;;;;;4930431;28;19960;-69
2023/09/23 04:05:55;;;;;;;;;;;18.70;99.90;;;;;;4931353;28;20402;-74
2023/09/23 04:08:20;;;;;;;;;;;18.70;99.90;;;;;;4938385;28;20400;-74
2023/09/23 04:10:46;;;;;;;;;;;18.70;99.90;;;;;;4933836;28;19941;-74
2023/09/23 04:13:14;;;;;;;;;;;18.60;99.90;;;;;;4941104;28;19934;-74
2023/09/23 04:15:40;;;;;;;;;;;18.70;99.90;;;;;;4938963;28;20459;-73
2023/09/23 04:18:05;;;;;;;;;;;18.70;99.90;;;;;;4954690;28;19925;-74
2023/09/23 04:20:32;;;;;;;;;;;18.70;99.90;;;;;;4934877;28;20040;-75
2023/09/23 04:22:57;;;;;;;;;;;18.70;99.90;;;;;;4937946;28;19950;-85
2023/09/23 04:25:23;;;;;;;;;;;18.70;99.90;;;;;;4938481;28;20354;-74
2023/09/23 04:27:52;;;;;;;;;;;18.60;99.90;;;;;;4938818;28;19956;-74
2023/09/23 04:30:17;;;;;;;;;;;18.70;99.90;;;;;;4940568;28;20378;-74
2023/09/23 04:32:43;;;;;;;;;;;18.70;99.90;;;;;;4936513;28;19957;-74
2023/09/23 04:35:09;;;;;;;;;;;18.70;99.90;;;;;;4939762;28;20057;-74
2023/09/23 04:37:37;;;;;;;;;;;18.70;99.90;;;;;;4940196;28;19938;-74
2023/09/23 04:40:10;;;;;;;;;;;18.70;99.90;;;;;;4933394;28;20022;-74
2023/09/23 04:42:40;;;;;;;;;;;18.70;99.90;;;;;;4940040;28;19954;-73
2023/09/23 04:45:07;;;;;;;;;;;18.70;99.90;;;;;;4942602;28;20037;-73
2023/09/23 04:47:33;;;;;;;;;;;18.70;99.90;;;;;;4940489;28;19942;-74
2023/09/23 04:50:00;;;;;;;;;;;18.60;99.90;;;;;;4939666;28;19937;-73
2023/09/23 04:52:28;;;;;;;;;;;18.70;99.90;;;;;;4937808;28;19939;-73
2023/09/23 04:54:54;;;;;;;;;;;18.60;99.90;;;;;;4939761;28;19987;-73
2023/09/23 04:57:20;;;;;;;;;;;18.60;99.90;;;;;;4942688;28;20061;-73
2023/09/23 04:59:45;;;;;;;;;;;18.60;99.90;;;;;;4936706;28;19968;-73
2023/09/23 05:02:13;;;;;;;;;;;18.60;99.90;;;;;;4935926;28;20688;-73
2023/09/23 05:04:39;;;;;;;;;;;18.50;99.90;;;;;;4939259;28;19954;-73
2023/09/23 05:07:05;;;;;;;;;;;18.50;99.90;;;;;;4937986;28;19932;-74
2023/09/23 05:09:30;;;;;;;;;;;18.60;99.90;;;;;;4940311;28;19940;-73
2023/09/23 05:11:56;;;;;;;;;;;18.60;99.90;;;;;;4933085;28;19931;-73
2023/09/23 05:14:25;;;;;;;;;;;18.60;99.90;;;;;;4937188;28;20434;-73
2023/09/23 05:16:51;;;;;;;;;;;18.60;99.90;;;;;;4921141;28;20617;-74
2023/09/23 05:19:19;;;;;;;;;;;18.60;99.90;;;;;;4927838;28;20221;-74
2023/09/23 05:21:45;;;;;;;;;;;18.60;99.90;;;;;;4933355;28;19955;-74
2023/09/23 05:24:11;;;;;;;;;;;18.60;99.90;;;;;;4937693;28;20047;-74
2023/09/23 05:26:36;;;;;;;;;;;18.60;99.90;;;;;;4936647;28;20799;-74
2023/09/23 05:29:02;;;;;;;;;;;18.70;99.90;;;;;;4932428;28;19928;-73
2023/09/23 05:31:28;;;;;;;;;;;18.70;99.90;;;;;;4934564;28;19943;-73
2023/09/23 05:33:54;;;;;;;;;;;18.70;99.90;;;;;;4935153;28;20152;-74
2023/09/23 05:36:20;;;;;;;;;;;18.70;99.90;;;;;;4934377;28;19918;-74
2023/09/23 05:38:45;;;;;;;;;;;18.70;99.90;;;;;;4934870;28;20007;-73
2023/09/23 05:41:11;;;;;;;;;;;18.80;99.90;;;;;;4928694;28;19932;-74
2023/09/23 05:43:37;;;;;;;;;;;18.90;99.90;;;;;;4935770;28;20374;-74
2023/09/23 05:46:05;;;;;;;;;;;18.90;99.90;;;;;;4934289;28;19935;-74
2023/09/23 05:48:30;;;;;;;;;;;18.90;99.90;;;;;;4941187;28;20217;-74
2023/09/23 05:51:06;;;;;;;;;;;19.00;99.90;;;;;;4933151;28;19980;-74
2023/09/23 05:53:32;;;;;;;;;;;19.00;99.90;;;;;;4935889;28;19936;-73
2023/09/23 05:55:58;;;;;;;;;;;19.10;99.90;;;;;;4932916;28;19919;-74
2023/09/23 05:58:24;;;;;;;;;;;19.10;99.90;;;;;;4936438;28;20356;-70
2023/09/23 06:00:50;;;;;;;;;;;19.10;99.90;;;;;;4933169;28;19996;-69
2023/09/23 06:03:17;;;;;;;;;;;19.10;99.90;;;;;;4936316;28;20015;-70
2023/09/23 06:05:46;;;;;;;;;;;19.20;99.90;;;;;;4938026;28;19936;-70
2023/09/23 06:08:12;;;;;;;;;;;19.10;99.90;;;;;;4937556;28;19952;-70
2023/09/23 06:10:39;;;;;;;;;;;19.20;99.90;;;;;;4935404;28;19937;-70
2023/09/23 06:13:05;;;;;;;;;;;19.20;99.90;;;;;;4935856;28;19981;-70
2023/09/23 06:15:31;;;;;;;;;;;19.20;99.90;;;;;;4935443;28;20000;-74
2023/09/23 06:17:57;;;;;;;;;;;19.20;99.90;;;;;;4936031;28;20411;-74
2023/09/23 06:20:22;;;;;;;;;;;19.20;99.90;;;;;;4935002;28;19952;-75
2023/09/23 06:22:48;;;;;;;;;;;19.20;99.90;;;;;;4934743;28;20038;-77
2023/09/23 06:25:13;;;;;;;;;;;19.20;99.90;;;;;;4934807;28;19925;-76
2023/09/23 06:27:39;;;;;;;;;;;19.20;99.90;;;;;;4933379;28;20321;-76
2023/09/23 06:30:05;;;;;;;;;;;19.30;99.90;;;;;;4931678;28;19935;-75
2023/09/23 06:32:31;;;;;;;;;;;19.30;99.90;;;;;;4929757;28;20122;-69
2023/09/23 06:34:57;;;;;;;;;;;19.20;99.90;;;;;;4922053;28;19986;-69
2023/09/23 06:37:22;;;;;;;;;;;19.20;99.90;;;;;;4928191;28;20410;-69
2023/09/23 06:39:48;;;;;;;;;;;19.20;99.90;;;;;;4930921;28;19952;-69
2023/09/23 06:42:13;;;;;;;;;;;19.10;99.90;;;;;;4930488;28;19932;-69
2023/09/23 06:44:39;;;;;;;;;;;19.10;99.90;;;;;;4934113;28;19933;-70
2023/09/23 06:47:05;;;;;;;;;;;19.10;99.90;;;;;;4929363;28;20021;-70
2023/09/23 06:49:30;;;;;;;;;;;19.00;99.90;;;;;;4933043;28;19939;-69
2023/09/23 06:51:56;;;;;;;;;;;19.00;99.90;;;;;;4931161;28;20520;-74
2023/09/23 06:54:21;;;;;;;;;;;19.00;99.90;;;;;;4927302;28;19992;-73
2023/09/23 06:56:46;;;;;;;;;;;18.90;99.90;;;;;;4927978;28;19978;-72
2023/09/23 06:59:12;;;;;;;;;;;18.90;99.90;;;;;;4930477;28;19952;-73
2023/09/23 07:01:37;;;;;;;;;;;18.90;99.90;;;;;;4931806;28;19934;-73
2023/09/23 07:04:04;;;;;;;;;;;18.80;99.90;;;;;;4922514;29;20042;-74
2023/09/23 07:06:29;;;;;;;;;;;18.80;99.90;;;;;;4931008;28;20342;-74
2023/09/23 07:08:55;;;;;;;;;;;18.90;99.90;;;;;;4926653;28;19928;-73
2023/09/23 07:11:21;;;;;;;;;;;18.90;99.90;;;;;;4933943;28;19924;-74
2023/09/23 07:13:46;;;;;;;;;;;18.90;99.90;;;;;;4934396;28;19927;-74
2023/09/23 07:16:14;;;;;;;;;;;19.00;99.90;;;;;;4929702;28;19948;-74
2023/09/23 07:18:39;;;;;;;;;;;19.00;99.90;;;;;;4933024;28;19942;-73
2023/09/23 07:21:05;;;;;;;;;;;19.00;99.90;;;;;;4932433;28;19957;-74
2023/09/23 07:23:30;;;;;;;;;;;19.00;99.90;;;;;;4947974;28;19955;-74
2023/09/23 07:25:56;;;;;;;;;;;19.00;99.90;;;;;;4928777;28;19957;-74
2023/09/23 07:28:22;;;;;;;;;;;18.90;99.90;;;;;;4931863;28;20043;-74
2023/09/23 07:30:47;;;;;;;;;;;18.80;99.90;;;;;;4925875;28;19940;-73
2023/09/23 07:33:13;;;;;;;;;;;18.70;99.90;;;;;;4932749;28;20468;-74
2023/09/23 07:35:38;;;;;;;;;;;18.60;99.90;;;;;;4924832;28;19918;-74
2023/09/23 07:38:04;;;;;;;;;;;18.50;99.90;;;;;;4928169;28;20812;-75
2023/09/23 07:40:30;;;;;;;;;;;18.40;99.90;;;;;;4934781;28;20018;-74
2023/09/23 07:42:55;;;;;;;;;;;18.30;99.90;;;;;;4923546;28;19957;-73
2023/09/23 07:45:21;;;;;;;;;;;18.10;99.90;;;;;;4909605;28;20016;-73
2023/09/23 07:47:47;;;;;;;;;;;18.10;99.90;;;;;;4920553;28;19932;-74
2023/09/23 07:50:13;;;;;;;;;;;18.00;99.90;;;;;;4926657;28;19937;-74
2023/09/23 07:52:39;;;;;;;;;;;17.90;99.90;;;;;;4936132;28;19935;-74
2023/09/23 07:55:04;;;;;;;;;;;17.90;99.90;;;;;;4922700;28;20497;-74
2023/09/23 07:57:32;;;;;;;;;;;17.80;99.90;;;;;;4933130;28;19933;-76
2023/09/23 07:59:57;;;;;;;;;;;17.80;99.90;;;;;;4909041;29;19937;-75
2023/09/23 08:02:23;;;;;;;;;;;17.80;99.90;;;;;;4923946;28;19953;-75
2023/09/23 08:04:48;;;;;;;;;;;17.80;99.90;;;;;;4929481;28;19937;-75
2023/09/23 08:07:14;;;;;;;;;;;17.80;99.90;;;;;;4938031;28;19914;-73
2023/09/23 08:09:40;;;;;;;;;;;17.80;99.90;;;;;;4930911;28;19934;-76
2023/09/23 08:12:06;;;;;;;;;;;17.80;99.90;;;;;;4902105;28;19988;-79
2023/09/23 08:14:31;;;;;;;;;;;17.80;99.90;;;;;;4929040;28;20428;-79
2023/09/23 08:16:57;;;;;;;;;;;17.80;99.90;;;;;;4930011;28;20341;-75
2023/09/23 08:19:23;;;;;;;;;;;17.80;99.90;;;;;;4932175;28;19938;-79
2023/09/23 08:21:48;;;;;;;;;;;17.80;99.90;;;;;;4931034;28;19962;-80
2023/09/23 08:24:14;;;;;;;;;;;17.90;99.90;;;;;;4925923;28;20012;-78
2023/09/23 08:26:40;;;;;;;;;;;17.90;99.90;;;;;;4944416;28;19937;-75
2023/09/23 08:29:05;;;;;;;;;;;17.90;99.90;;;;;;4918005;28;19932;-76
2023/09/23 08:31:31;;;;;;;;;;;18.00;99.90;;;;;;4932504;28;20016;-74
2023/09/23 08:33:57;;;;;;;;;;;18.10;99.90;;;;;;4929495;28;19935;-76
2023/09/23 08:36:22;;;;;;;;;;;18.30;99.90;;;;;;4934067;28;20024;-75
2023/09/23 08:38:48;;;;;;;;;;;18.40;99.90;;;;;;4932509;28;19936;-74
2023/09/23 08:41:15;;;;;;;;;;;18.50;99.90;;;;;;4916748;28;19961;-77
2023/09/23 08:43:42;;;;;;;;;;;18.70;99.90;;;;;;4927456;28;19954;-71
2023/09/23 08:46:09;;;;;;;;;;;18.80;99.90;;;;;;4927217;28;20412;-71
2023/09/23 08:48:35;;;;;;;;;;;18.90;99.90;;;;;;4931760;28;19932;-71
2023/09/23 08:51:02;;;;;;;;;;;19.10;99.90;;;;;;4934246;28;19930;-70
2023/09/23 08:53:31;;;;;;;;;;;19.20;99.90;;;;;;4936571;28;19929;-71
2023/09/23 08:55:56;;;;;;;;;;;19.20;99.90;;;;;;4916104;28;19934;-70
2023/09/23 08:58:23;;;;;;;;;;;19.30;99.90;;;;;;4932421;28;19989;-70
2023/09/23 09:00:51;;;;;;;;;;;19.40;99.90;;;;;;4935928;28;20026;-70
2023/09/23 09:03:17;;;;;;;;;;;19.50;99.90;;;;;;4934575;28;20212;-70
2023/09/23 09:05:43;;;;;;;;;;;19.60;99.90;;;;;;4936958;28;20763;-71
2023/09/23 09:08:09;;;;;;;;;;;19.80;99.90;;;;;;4931120;28;19962;-74
2023/09/23 09:10:35;;;;;;;;;;;19.90;99.90;;;;;;4936635;28;20413;-74
2023/09/23 09:13:03;;;;;;;;;;;20.00;99.90;;;;;;4915738;28;20052;-76
2023/09/23 09:15:30;;;;;;;;;;;20.20;99.90;;;;;;4944614;28;20339;-74
2023/09/23 09:17:59;;;;;;;;;;;20.40;99.90;;;;;;4935714;28;19914;-70
2023/09/23 09:20:25;;;;;;;;;;;20.50;99.90;;;;;;4937672;28;19970;-72
2023/09/23 09:22:51;;;;;;;;;;;20.60;99.90;;;;;;4939744;28;20019;-71
2023/09/23 09:25:20;;;;;;;;;;;20.60;99.90;;;;;;4920507;28;19933;-71
2023/09/23 09:27:46;;;;;;;;;;;20.60;99.90;;;;;;4935217;28;19938;-72
2023/09/23 09:30:13;;;;;;;;;;;20.70;99.90;;;;;;4936983;28;19936;-72
2023/09/23 09:32:42;;;;;;;;;;;20.80;99.90;;;;;;4931626;28;20004;-71
2023/09/23 09:35:12;;;;;;;;;;;20.90;99.90;;;;;;4934343;28;19953;-71
2023/09/23 09:37:39;;;;;;;;;;;20.80;99.90;;;;;;4934560;28;19931;-70
2023/09/23 09:40:08;;;;;;;;;;;20.80;99.90;;;;;;4949797;28;19996;-70
2023/09/23 09:42:35;;;;;;;;;;;20.80;99.90;;;;;;4933957;28;19961;-70
2023/09/23 09:45:00;;;;;;;;;;;20.90;99.90;;;;;;4918293;28;19939;-70
2023/09/23 09:47:28;;;;;;;;;;;20.80;99.90;;;;;;4928783;28;19937;-70
2023/09/23 09:49:54;;;;;;;;;;;20.80;99.90;;;;;;4929142;28;19924;-71
2023/09/23 09:52:26;;;;;;;;;;;20.80;99.90;;;;;;4937040;28;20227;-70
2023/09/23 09:54:56;;;;;;;;;;;20.70;99.90;;;;;;4929628;28;19973;-72
2023/09/23 09:57:22;;;;;;;;;;;20.60;99.90;;;;;;4929478;28;19957;-69
2023/09/23 09:59:48;;;;;;;;;;;20.40;99.90;;;;;;4935524;28;19936;-71
2023/09/23 10:02:14;;;;;;;;;;;20.30;99.90;;;;;;4934556;28;19935;-72
2023/09/23 10:04:45;;;;;;;;;;;20.20;99.90;;;;;;4935753;28;20030;-70
2023/09/23 10:07:10;;;;;;;;;;;20.10;99.90;;;;;;4931687;28;19929;-70
2023/09/23 10:09:38;;;;;;;;;;;20.10;99.90;;;;;;4935195;28;19943;-71
2023/09/23 10:12:06;;;;;;;;;;;20.10;99.90;;;;;;4922184;28;19933;-71
2023/09/23 10:14:32;;;;;;;;;;;20.10;99.90;;;;;;4935154;28;19964;-69
2023/09/23 10:16:59;;;;;;;;;;;20.10;99.90;;;;;;4936648;28;19947;-70
2023/09/23 10:19:28;;;;;;;;;;;20.10;99.90;;;;;;4936149;28;19935;-69
2023/09/23 10:22:02;;;;;;;;;;;20.00;99.90;;;;;;4933065;28;20045;-69
2023/09/23 10:24:32;;;;;;;;;;;20.00;99.90;;;;;;4931249;28;19963;-68
2023/09/23 10:27:02;;;;;;;;;;;19.90;99.90;;;;;;4933996;28;19933;-68
2023/09/23 10:29:28;;;;;;;;;;;19.90;99.90;;;;;;4930951;28;19941;-69
2023/09/23 10:31:53;;;;;;;;;;;19.90;99.90;;;;;;4923988;28;20257;-69
2023/09/23 10:34:19;;;;;;;;;;;20.00;99.90;;;;;;4934964;28;19945;-69
2023/09/23 10:36:48;;;;;;;;;;;19.90;99.90;;;;;;4931659;28;19969;-68
2023/09/23 10:39:16;;;;;;;;;;;19.90;99.90;;;;;;4930217;28;19932;-68
2023/09/23 10:41:42;;;;;;;;;;;20.00;99.90;;;;;;4929949;28;19925;-69
2023/09/23 10:44:08;;;;;;;;;;;20.00;99.90;;;;;;4936294;28;21584;-69
2023/09/23 10:46:33;;;;;;;;;;;20.20;99.90;;;;;;4932503;28;19978;-70
2023/09/23 10:48:59;;;;;;;;;;;20.20;99.90;;;;;;4930761;28;19922;-69
2023/09/23 10:51:25;;;;;;;;;;;20.40;99.90;;;;;;4932860;28;20366;-69
2023/09/23 10:53:51;;;;;;;;;;;20.40;99.90;;;;;;4936321;28;19972;-71
2023/09/23 10:56:20;;;;;;;;;;;20.40;99.90;;;;;;4932033;28;20031;-70
2023/09/23 10:58:46;;;;;;;;;;;20.50;99.90;;;;;;4930070;28;19935;-71
2023/09/23 11:01:12;;;;;;;;;;;20.50;99.90;;;;;;4934117;28;19971;-70
2023/09/23 11:03:39;;;;;;;;;;;20.50;99.90;;;;;;4936556;28;20022;-71
2023/09/23 11:06:06;;;;;;;;;;;20.40;99.90;;;;;;4933364;28;19936;-72
2023/09/23 11:08:32;;;;;;;;;;;20.30;99.90;;;;;;4936164;28;20278;-70
2023/09/23 11:10:58;;;;;;;;;;;20.20;99.90;;;;;;4929099;28;19933;-68
2023/09/23 11:13:25;;;;;;;;;;;20.00;99.90;;;;;;4933610;28;19948;-69
2023/09/23 11:15:50;;;;;;;;;;;19.80;99.90;;;;;;4931312;28;20015;-68
2023/09/23 11:18:16;;;;;;;;;;;19.60;99.90;;;;;;4933031;28;19937;-67
2023/09/23 11:20:43;;;;;;;;;;;19.50;99.90;;;;;;4928618;28;20859;-68
2023/09/23 11:23:10;;;;;;;;;;;19.40;99.90;;;;;;4934679;28;20082;-68
2023/09/23 11:25:46;;;;;;;;;;;19.40;99.90;;;;;;4933399;28;19974;-70
2023/09/23 11:28:16;;;;;;;;;;;19.40;99.90;;;;;;4925513;28;19971;-68
2023/09/23 11:30:42;;;;;;;;;;;19.50;99.90;;;;;;4924537;28;19979;-68
2023/09/23 11:33:07;;;;;;;;;;;19.50;99.90;;;;;;4934027;28;20063;-69
2023/09/23 11:35:34;;;;;;;;;;;19.50;99.90;;;;;;4932146;28;19997;-68
2023/09/23 11:37:59;;;;;;;;;;;19.60;99.90;;;;;;4931038;28;19930;-68
2023/09/23 11:40:25;;;;;;;;;;;19.60;99.90;;;;;;4931847;28;19932;-69
2023/09/23 11:42:51;;;;;;;;;;;19.60;99.90;;;;;;4927537;28;19973;-69
2023/09/23 11:45:17;;;;;;;;;;;19.60;99.90;;;;;;4932286;28;19938;-68
2023/09/23 11:47:42;;;;;;;;;;;19.50;99.90;;;;;;4925676;28;19925;-69
2023/09/23 11:50:08;;;;;;;;;;;19.40;99.90;;;;;;4930650;28;20018;-71
2023/09/23 11:52:33;;;;;;;;;;;19.30;99.90;;;;;;4935902;28;19932;-71
2023/09/23 11:54:59;;;;;;;;;;;19.20;99.90;;;;;;4930290;28;19945;-72
2023/09/23 11:57:26;;;;;;;;;;;19.10;99.90;;;;;;4925964;28;21088;-72
2023/09/23 11:59:51;;;;;;;;;;;19.10;99.90;;;;;;4917304;28;19943;-71
2023/09/23 12:02:19;;;;;;;;;;;19.20;99.90;;;;;;4920886;28;20325;-71
2023/09/23 12:04:46;;;;;;;;;;;19.20;99.90;;;;;;4923830;28;21307;-67
2023/09/23 12:07:14;;;;;;;;;;;19.30;99.90;;;;;;4923052;28;19932;-67
2023/09/23 12:09:39;;;;;;;;;;;19.20;99.90;;;;;;4916023;28;20310;-66
2023/09/23 12:12:05;;;;;;;;;;;19.20;99.90;;;;;;4915093;28;19918;-66
2023/09/23 12:14:31;;;;;;;;;;;19.10;99.90;;;;;;4919977;28;19931;-67
2023/09/23 12:16:56;;;;;;;;;;;19.00;99.90;;;;;;4919674;28;19932;-66
2023/09/23 12:19:22;;;;;;;;;;;18.90;99.90;;;;;;4923975;28;19941;-67
2023/09/23 12:21:49;;;;;;;;;;;18.70;99.90;;;;;;4922722;28;20001;-67
2023/09/23 12:24:15;;;;;;;;;;;18.80;99.90;;;;;;4924097;28;20014;-66
2023/09/23 12:26:40;;;;;;;;;;;18.80;99.90;;;;;;4918654;28;19932;-66
2023/09/23 12:29:05;;;;;;;;;;;18.80;99.90;;;;;;4917218;28;19933;-67
2023/09/23 12:31:31;;;;;;;;;;;18.60;99.90;;;;;;4932637;28;19942;-67
2023/09/23 12:33:57;;;;;;;;;;;18.50;99.90;;;;;;4936265;28;20591;-66
2023/09/23 12:36:23;;;;;;;;;;;18.40;99.90;;;;;;4931365;28;19961;-67
2023/09/23 12:38:48;;;;;;;;;;;18.20;99.90;;;;;;4930852;28;20288;-67
2023/09/23 12:41:14;;;;;;;;;;;18.20;99.90;;;;;;4938635;28;19921;-66
2023/09/23 12:43:40;;;;;;;;;;;18.30;99.90;;;;;;4932190;28;19958;-66
2023/09/23 12:46:06;;;;;;;;;;;18.30;99.90;;;;;;4932579;28;20707;-66
2023/09/23 12:48:32;;;;;;;;;;;18.40;99.90;;;;;;4928676;28;20002;-66
2023/09/23 12:50:57;;;;;;;;;;;18.40;99.90;;;;;;4932307;28;20021;-66
2023/09/23 12:53:23;;;;;;;;;;;18.40;99.90;;;;;;4929061;28;20515;-66
2023/09/23 12:55:49;;;;;;;;;;;18.40;99.90;;;;;;4936444;28;20451;-67
2023/09/23 12:58:14;;;;;;;;;;;18.40;99.90;;;;;;4935715;28;19919;-67
2023/09/23 13:00:41;;;;;;;;;;;18.40;99.90;;;;;;4939964;28;20486;-68
2023/09/23 13:03:08;;;;;;;;;;;18.40;99.90;;;;;;4932004;28;19922;-68
2023/09/23 13:05:35;;;;;;;;;;;18.40;99.90;;;;;;4936916;28;20253;-68
2023/09/23 13:08:00;;;;;;;;;;;18.40;99.90;;;;;;4932542;28;19977;-67
2023/09/23 13:10:26;;;;;;;;;;;18.40;99.90;;;;;;4936483;28;19911;-67
2023/09/23 13:12:52;;;;;;;;;;;18.50;99.90;;;;;;4932397;28;19918;-67
2023/09/23 13:15:17;;;;;;;;;;;18.50;99.90;;;;;;4935146;28;19914;-68
2023/09/23 13:17:44;;;;;;;;;;;18.60;99.90;;;;;;4934827;28;20811;-67
2023/09/23 13:20:10;;;;;;;;;;;18.60;99.90;;;;;;4936931;28;20468;-68
2023/09/23 13:22:36;;;;;;;;;;;18.50;99.90;;;;;;4934143;28;19953;-68
2023/09/23 13:25:03;;;;;;;;;;;18.50;99.90;;;;;;4933167;28;19918;-68
2023/09/23 13:27:29;;;;;;;;;;;18.40;99.90;;;;;;4938055;28;19914;-68
2023/09/23 13:29:55;;;;;;;;;;;18.30;99.90;;;;;;4930970;28;19918;-67
2023/09/23 13:32:21;;;;;;;;;;;18.20;99.90;;;;;;4939162;28;20371;-68
2023/09/23 13:34:48;;;;;;;;;;;18.10;99.90;;;;;;4934529;28;19918;-68
2023/09/23 13:37:14;;;;;;;;;;;18.10;99.90;;;;;;4936630;28;19921;-68
2023/09/23 13:39:39;;;;;;;;;;;18.10;99.90;;;;;;4926472;28;19919;-66
2023/09/23 13:42:07;;;;;;;;;;;18.00;99.90;;;;;;4934597;28;20379;-66
2023/09/23 13:44:33;;;;;;;;;;;18.00;99.90;;;;;;4930012;28;19926;-66
2023/09/23 13:46:58;;;;;;;;;;;18.00;99.90;;;;;;4934387;28;20039;-71
2023/09/23 13:49:24;;;;;;;;;;;18.10;99.90;;;;;;4931365;28;19922;-68
2023/09/23 13:51:50;;;;;;;;;;;18.20;99.90;;;;;;4916989;28;19925;-68
2023/09/23 13:54:15;;;;;;;;;;;18.30;99.90;;;;;;4930587;28;19926;-68
2023/09/23 13:56:41;;;;;;;;;;;18.30;99.90;;;;;;4929077;28;20773;-67
2023/09/23 13:59:07;;;;;;;;;;;18.40;99.90;;;;;;4928673;28;19969;-68
2023/09/23 14:01:33;;;;;;;;;;;18.50;99.90;;;;;;4928942;28;19910;-68
2023/09/23 14:03:59;;;;;;;;;;;18.60;99.90;;;;;;4931509;28;20284;-68
2023/09/23 14:06:25;;;;;;;;;;;18.60;99.90;;;;;;4929606;28;20060;-68
2023/09/23 14:08:52;;;;;;;;;;;18.60;99.90;;;;;;4936192;28;19922;-68
2023/09/23 14:11:18;;;;;;;;;;;18.60;99.90;;;;;;4932891;28;19914;-69